Time;durP1;ratioP1;P1;durP2;ratioP2;P2;SDS_P1;SDS_P2;PMS_P1;PMS_P2;Temp;Humidity;BMP_temperature;BMP_pressure;BME280_temperature;BME280_humidity;BME280_pressure;Samples;Min_cycle;Max_cycle;Signal;HPM_P1;HPM_P2
2023/11/11 00:00:01;;;;;;;1.60;0.60;;;8.70;99.90;;;;;;5011652;28;20183;-75
2023/11/11 00:02:33;;;;;;;1.75;0.63;;;8.70;99.90;;;;;;5035546;28;20187;-75
2023/11/11 00:05:02;;;;;;;2.15;0.68;;;8.70;99.90;;;;;;5035219;28;20357;-75
2023/11/11 00:07:29;;;;;;;2.08;0.70;;;8.70;99.90;;;;;;5035217;28;21692;-75
2023/11/11 00:09:58;;;;;;;2.40;0.80;;;8.70;99.90;;;;;;5018524;28;20201;-76
2023/11/11 00:12:29;;;;;;;2.50;1.10;;;8.70;99.90;;;;;;5053014;28;20189;-76
2023/11/11 00:14:54;;;;;;;1.70;0.80;;;8.70;99.90;;;;;;5052873;28;20209;-76
2023/11/11 00:17:21;;;;;;;3.40;1.00;;;8.80;99.90;;;;;;5052771;28;20534;-76
2023/11/11 00:19:49;;;;;;;2.88;0.90;;;8.80;99.90;;;;;;5026815;28;20180;-76
2023/11/11 00:22:21;;;;;;;3.15;1.00;;;8.80;99.90;;;;;;5052963;28;20722;-76
2023/11/11 00:24:54;;;;;;;1.52;0.88;;;8.90;99.90;;;;;;5018805;28;20672;-76
2023/11/11 00:27:27;;;;;;;2.60;0.90;;;8.90;99.90;;;;;;5034875;28;20196;-76
2023/11/11 00:29:53;;;;;;;2.40;1.35;;;8.90;99.90;;;;;;5052549;28;20260;-76
2023/11/11 00:32:19;;;;;;;4.60;1.40;;;8.90;99.90;;;;;;5052758;28;20311;-76
2023/11/11 00:34:45;;;;;;;3.90;1.90;;;9.00;99.90;;;;;;5018187;28;20615;-76
2023/11/11 00:37:11;;;;;;;2.53;1.48;;;9.00;99.90;;;;;;5056328;28;20256;-76
2023/11/11 00:39:37;;;;;;;3.10;1.58;;;9.00;99.90;;;;;;5026532;28;20162;-76
2023/11/11 00:42:03;;;;;;;2.63;1.27;;;9.00;99.90;;;;;;5034869;28;20183;-76
2023/11/11 00:44:44;;;;;;;2.05;1.58;;;9.10;99.90;;;;;;5035270;28;20832;-75
2023/11/11 00:47:16;;;;;;;3.47;1.88;;;9.10;99.90;;;;;;5018124;28;20173;-75
2023/11/11 00:49:53;;;;;;;3.13;2.20;;;9.10;99.90;;;;;;5028224;28;20184;-75
2023/11/11 00:52:45;;;;;;;4.10;2.13;;;9.10;99.90;;;;;;5019050;28;20208;-75
2023/11/11 00:55:16;;;;;;;3.97;3.53;;;9.20;99.90;;;;;;5034513;28;20205;-76
2023/11/11 00:57:46;;;;;;;6.78;4.70;;;9.20;99.90;;;;;;5018351;28;20229;-75
2023/11/11 01:00:15;;;;;;;7.07;3.90;;;9.20;99.90;;;;;;5034450;28;20177;-75
2023/11/11 01:02:40;;;;;;;7.95;4.60;;;9.20;99.90;;;;;;5052227;28;20169;-75
2023/11/11 01:05:06;;;;;;;6.37;5.13;;;9.20;99.90;;;;;;5052318;28;20212;-75
2023/11/11 01:07:32;;;;;;;9.47;5.90;;;9.30;99.90;;;;;;5034233;28;20189;-75
2023/11/11 01:09:58;;;;;;;8.30;6.70;;;9.30;99.90;;;;;;5033930;28;21220;-75
2023/11/11 01:12:24;;;;;;;8.52;7.63;;;9.30;99.90;;;;;;5034116;28;20658;-75
2023/11/11 01:14:53;;;;;;;7.95;6.47;;;9.30;99.90;;;;;;5005897;28;20236;-75
2023/11/11 01:17:18;;;;;;;8.60;7.20;;;9.30;99.90;;;;;;5051663;28;20651;-75
2023/11/11 01:19:46;;;;;;;11.02;7.15;;;9.40;99.90;;;;;;5033775;28;20203;-76
2023/11/11 01:22:16;;;;;;;10.05;7.93;;;9.30;99.90;;;;;;5017465;28;20272;-75
2023/11/11 01:24:49;;;;;;;13.68;9.57;;;9.40;99.90;;;;;;5017234;28;20199;-75
2023/11/11 01:27:15;;;;;;;10.30;9.02;;;9.40;99.90;;;;;;5017106;28;20188;-76
2023/11/11 01:29:43;;;;;;;12.43;9.00;;;9.40;99.90;;;;;;5017321;28;20197;-76
2023/11/11 01:32:11;;;;;;;10.90;9.07;;;9.40;99.90;;;;;;5017272;28;20211;-76
2023/11/11 01:34:37;;;;;;;11.50;10.25;;;9.40;99.90;;;;;;5000678;28;20708;-76
2023/11/11 01:37:08;;;;;;;14.80;10.47;;;9.40;99.90;;;;;;5033587;28;20585;-76
2023/11/11 01:39:39;;;;;;;16.67;10.80;;;9.40;99.90;;;;;;5033495;28;20172;-76
2023/11/11 01:42:12;;;;;;;12.95;11.40;;;9.40;99.90;;;;;;5018321;28;20181;-76
2023/11/11 01:44:38;;;;;;;13.07;11.70;;;9.50;99.90;;;;;;5016763;28;20565;-76
2023/11/11 01:47:06;;;;;;;13.07;11.10;;;9.50;99.90;;;;;;5032821;28;20641;-76
2023/11/11 01:49:40;;;;;;;14.47;11.57;;;9.50;99.90;;;;;;5033497;28;20177;-76
2023/11/11 01:52:11;;;;;;;16.50;12.02;;;9.50;99.90;;;;;;5037955;28;21136;-76
2023/11/11 01:54:49;;;;;;;15.07;12.60;;;9.50;99.90;;;;;;5033301;28;20235;-76
2023/11/11 01:57:18;;;;;;;15.00;13.38;;;9.50;99.90;;;;;;5032721;28;20188;-77
2023/11/11 01:59:44;;;;;;;14.65;12.55;;;9.50;99.90;;;;;;5050885;28;20177;-76
2023/11/11 02:02:11;;;;;;;13.93;12.35;;;9.60;99.90;;;;;;5016819;28;20169;-76
2023/11/11 02:04:39;;;;;;;15.48;13.80;;;9.50;99.90;;;;;;5033048;28;20189;-76
2023/11/11 02:07:07;;;;;;;15.73;12.02;;;9.50;99.90;;;;;;5033245;28;20176;-76
2023/11/11 02:09:34;;;;;;;13.00;11.60;;;9.50;99.90;;;;;;5015989;28;20184;-76
2023/11/11 02:11:59;;;;;;;15.10;11.18;;;9.50;99.90;;;;;;5033053;28;21250;-77
2023/11/11 02:14:26;;;;;;;14.10;10.57;;;9.50;99.90;;;;;;5030987;28;20295;-76
2023/11/11 02:16:57;;;;;;;11.85;10.65;;;9.50;99.90;;;;;;5049424;28;20188;-77
2023/11/11 02:19:22;;;;;;;11.85;10.32;;;9.40;99.90;;;;;;5016211;28;20252;-77
2023/11/11 02:21:50;;;;;;;13.13;9.97;;;9.40;99.90;;;;;;5032670;28;20200;-77
2023/11/11 02:24:21;;;;;;;12.18;8.80;;;9.40;99.90;;;;;;5050676;28;20296;-77
2023/11/11 02:26:49;;;;;;;9.73;8.55;;;9.30;99.90;;;;;;5008836;28;20208;-77
2023/11/11 02:29:20;;;;;;;7.88;6.90;;;9.30;99.90;;;;;;5037834;28;20251;-77
2023/11/11 02:31:48;;;;;;;8.23;6.72;;;9.20;99.90;;;;;;5024629;28;20181;-77
2023/11/11 02:34:16;;;;;;;16.07;8.77;;;9.20;99.90;;;;;;5032331;28;20238;-76
2023/11/11 02:36:46;;;;;;;9.50;6.65;;;9.20;99.90;;;;;;5016550;28;20573;-77
2023/11/11 02:39:13;;;;;;;9.00;6.33;;;9.20;99.90;;;;;;5000074;28;20220;-77
2023/11/11 02:41:39;;;;;;;11.70;7.03;;;9.20;99.90;;;;;;5032455;28;20172;-76
2023/11/11 02:44:06;;;;;;;10.32;6.75;;;9.20;99.90;;;;;;5016091;28;20173;-76
2023/11/11 02:46:34;;;;;;;7.25;6.47;;;9.20;99.90;;;;;;5050427;28;20240;-76
2023/11/11 02:49:35;;;;;;;10.70;8.63;;;9.20;99.90;;;;;;5018624;28;20180;-77
2023/11/11 02:52:01;;;;;;;10.38;6.97;;;9.20;99.90;;;;;;5032311;28;20177;-77
2023/11/11 02:54:33;;;;;;;11.52;7.43;;;9.20;99.90;;;;;;5016422;28;20639;-77
2023/11/11 02:57:02;;;;;;;8.68;7.03;;;9.20;99.90;;;;;;5033495;28;20544;-77
2023/11/11 02:59:32;;;;;;;12.43;7.35;;;9.20;99.90;;;;;;5020512;28;20196;-77
2023/11/11 03:01:58;;;;;;;9.32;7.57;;;9.30;99.90;;;;;;5036363;28;20259;-77
2023/11/11 03:04:25;;;;;;;8.87;7.50;;;9.30;99.90;;;;;;5023111;28;20231;-77
2023/11/11 03:06:51;;;;;;;11.73;8.40;;;9.30;99.90;;;;;;5037065;28;20644;-77
2023/11/11 03:09:22;;;;;;;8.77;7.65;;;9.30;99.90;;;;;;5056526;28;20902;-77
2023/11/11 03:11:50;;;;;;;11.05;9.43;;;9.30;99.90;;;;;;5046215;28;20181;-77
2023/11/11 03:14:19;;;;;;;10.90;8.73;;;9.30;99.90;;;;;;5036387;28;20263;-76
2023/11/11 03:16:50;;;;;;;11.20;9.40;;;9.30;99.90;;;;;;5036339;28;20177;-76
2023/11/11 03:19:16;;;;;;;9.53;8.30;;;9.30;99.90;;;;;;5036088;28;20217;-76
2023/11/11 03:21:41;;;;;;;13.90;10.40;;;9.20;99.90;;;;;;5035758;28;20180;-76
2023/11/11 03:24:10;;;;;;;9.40;7.97;;;9.20;99.90;;;;;;5054003;28;20682;-77
2023/11/11 03:26:41;;;;;;;11.50;9.65;;;9.20;99.90;;;;;;5036519;28;20178;-77
2023/11/11 03:29:14;;;;;;;10.30;9.00;;;9.20;99.90;;;;;;5019540;28;20191;-77
2023/11/11 03:31:56;;;;;;;;;;;;;;;;;;;;;
2023/11/11 03:34:22;;;;;;;12.68;8.68;;;9.30;99.90;;;;;;5053982;28;20200;-77
2023/11/11 03:37:06;;;;;;;;;;;;;;;;;;;;;
2023/11/11 03:39:40;;;;;;;12.70;9.18;;;9.30;99.90;;;;;;5035861;28;20684;-76
2023/11/11 03:42:13;;;;;;;9.73;6.07;;;9.30;99.90;;;;;;5040215;28;20175;-75
2023/11/11 03:44:49;;;;;;;7.68;6.70;;;9.20;99.90;;;;;;5035941;28;20271;-75
2023/11/11 03:47:23;;;;;;;6.97;5.90;;;9.20;99.90;;;;;;5035857;28;20183;-76
2023/11/11 03:49:49;;;;;;;11.68;5.15;;;9.20;99.90;;;;;;5034856;28;20697;-76
2023/11/11 03:52:23;;;;;;;8.05;4.80;;;9.10;99.90;;;;;;5019428;28;20183;-76
2023/11/11 03:55:12;;;;;;;10.05;4.80;;;9.10;99.90;;;;;;5012048;28;20740;-76
2023/11/11 03:57:53;;;;;;;7.20;4.50;;;9.10;99.90;;;;;;5045360;28;20283;-77
2023/11/11 04:00:29;;;;;;;8.00;4.80;;;9.10;99.90;;;;;;5019850;28;20244;-77
2023/11/11 04:03:10;;;;;;;9.80;4.22;;;9.10;99.90;;;;;;5053474;28;20264;-77
2023/11/11 04:05:38;;;;;;;7.80;4.63;;;9.10;99.90;;;;;;5018761;28;20196;-77
2023/11/11 04:08:08;;;;;;;6.68;3.97;;;9.10;99.90;;;;;;5053007;28;20173;-76
2023/11/11 04:10:42;;;;;;;4.13;3.40;;;9.10;99.90;;;;;;5034808;28;20287;-76
2023/11/11 04:13:32;;;;;;;6.03;3.17;;;9.10;99.90;;;;;;5021487;28;20275;-76
2023/11/11 04:16:06;;;;;;;3.65;2.50;;;9.10;99.90;;;;;;5019006;28;20208;-76
2023/11/11 04:18:42;;;;;;;6.45;3.25;;;9.10;99.90;;;;;;5056895;28;20294;-76
2023/11/11 04:21:13;;;;;;;6.27;2.50;;;9.10;99.90;;;;;;5035273;28;20262;-76
2023/11/11 04:23:48;;;;;;;4.20;2.97;;;9.10;99.90;;;;;;5002918;28;20637;-76
2023/11/11 04:26:16;;;;;;;3.70;2.85;;;9.10;99.90;;;;;;5018660;28;20538;-76
2023/11/11 04:28:44;;;;;;;6.85;3.88;;;9.10;99.90;;;;;;5035218;28;20184;-76
2023/11/11 04:31:13;;;;;;;4.72;2.47;;;9.00;99.90;;;;;;5035348;28;20238;-76
2023/11/11 04:33:46;;;;;;;4.95;2.60;;;9.00;99.90;;;;;;5052850;28;20646;-76
2023/11/11 04:36:11;;;;;;;4.95;2.50;;;9.10;99.90;;;;;;5034689;28;20235;-76
2023/11/11 04:38:37;;;;;;;5.07;2.40;;;9.10;99.90;;;;;;5052943;28;20228;-76
2023/11/11 04:41:05;;;;;;;2.75;2.03;;;9.10;99.90;;;;;;5052527;28;20530;-76
2023/11/11 04:43:34;;;;;;;6.15;2.85;;;9.10;99.90;;;;;;5052722;28;20175;-76
2023/11/11 04:46:01;;;;;;;3.70;2.50;;;9.20;99.90;;;;;;5034824;28;20197;-77
2023/11/11 04:48:27;;;;;;;4.53;2.33;;;9.20;99.90;;;;;;5052665;28;20263;-77
2023/11/11 04:50:53;;;;;;;4.87;1.33;;;9.20;99.90;;;;;;5052407;28;20264;-76
2023/11/11 04:53:19;;;;;;;6.22;1.88;;;9.20;99.90;;;;;;5035443;28;20177;-76
2023/11/11 04:55:47;;;;;;;5.78;1.60;;;9.10;99.90;;;;;;5036653;28;20197;-76
2023/11/11 04:58:16;;;;;;;4.22;1.77;;;9.20;99.90;;;;;;5052345;28;20212;-76
2023/11/11 05:00:44;;;;;;;7.53;1.95;;;9.10;99.90;;;;;;5034068;28;20614;-76
2023/11/11 05:03:09;;;;;;;2.85;1.10;;;9.10;99.90;;;;;;5034482;28;20264;-77
2023/11/11 05:05:35;;;;;;;5.97;1.90;;;9.20;99.90;;;;;;5051780;28;20354;-76
2023/11/11 05:08:04;;;;;;;2.97;1.20;;;9.20;99.90;;;;;;5034522;28;20205;-77
2023/11/11 05:10:31;;;;;;;2.50;1.20;;;9.20;99.90;;;;;;5051652;28;20275;-77
2023/11/11 05:12:57;;;;;;;6.68;1.35;;;9.20;99.90;;;;;;5051920;28;20240;-76
2023/11/11 05:15:25;;;;;;;1.60;1.00;;;9.20;99.90;;;;;;5051553;28;20208;-76
2023/11/11 05:17:50;;;;;;;3.40;1.15;;;9.20;99.90;;;;;;5051610;28;20200;-76
2023/11/11 05:20:20;;;;;;;5.80;1.23;;;9.20;99.90;;;;;;5050754;28;20180;-76
2023/11/11 05:22:48;;;;;;;4.07;1.08;;;9.30;99.90;;;;;;5033876;28;20267;-76
2023/11/11 05:25:15;;;;;;;1.90;1.10;;;9.30;99.90;;;;;;5051446;28;20192;-76
2023/11/11 05:27:41;;;;;;;2.58;1.15;;;9.30;99.90;;;;;;5033622;28;20177;-77
2023/11/11 05:30:08;;;;;;;2.90;1.20;;;9.40;99.90;;;;;;5017062;28;20184;-76
2023/11/11 05:32:35;;;;;;;2.17;1.30;;;9.40;99.90;;;;;;5054993;28;20177;-76
2023/11/11 05:35:04;;;;;;;2.42;1.33;;;9.40;99.90;;;;;;5051616;28;20201;-76
2023/11/11 05:37:32;;;;;;;2.67;0.95;;;9.40;99.90;;;;;;5033430;28;20184;-76
2023/11/11 05:40:01;;;;;;;2.43;1.00;;;9.40;99.90;;;;;;5016402;28;20173;-76
2023/11/11 05:42:27;;;;;;;4.50;1.00;;;9.40;99.90;;;;;;5033651;28;20173;-76
2023/11/11 05:44:54;;;;;;;2.65;1.20;;;9.50;99.90;;;;;;5051262;28;20200;-77
2023/11/11 05:47:20;;;;;;;3.30;1.30;;;9.50;99.90;;;;;;5051269;28;20184;-76
2023/11/11 05:49:46;;;;;;;5.77;1.73;;;9.50;99.90;;;;;;5050796;28;20180;-77
2023/11/11 05:52:12;;;;;;;4.03;1.47;;;9.50;99.90;;;;;;5051186;28;20233;-76
2023/11/11 05:54:41;;;;;;;4.68;1.90;;;9.50;99.90;;;;;;5033290;28;20647;-77
2023/11/11 05:57:09;;;;;;;3.90;1.65;;;9.40;99.90;;;;;;5033137;28;20173;-78
2023/11/11 05:59:35;;;;;;;3.25;1.52;;;9.40;99.90;;;;;;5000444;28;20221;-78
2023/11/11 06:02:09;;;;;;;4.95;2.28;;;9.40;99.90;;;;;;5017703;28;20169;-76
2023/11/11 06:04:35;;;;;;;7.40;1.92;;;9.40;99.90;;;;;;5016529;28;20262;-76
2023/11/11 06:07:01;;;;;;;4.65;2.38;;;9.30;99.90;;;;;;5016780;28;20177;-76
2023/11/11 06:09:27;;;;;;;6.93;3.05;;;9.30;99.90;;;;;;5036556;28;20169;-76
2023/11/11 06:11:53;;;;;;;5.18;2.40;;;9.30;99.90;;;;;;5032951;28;20185;-76
2023/11/11 06:14:19;;;;;;;4.15;2.75;;;9.20;99.90;;;;;;5032667;28;20232;-77
2023/11/11 06:16:45;;;;;;;3.77;2.20;;;9.20;99.90;;;;;;5016266;28;20675;-76
2023/11/11 06:19:14;;;;;;;3.13;2.30;;;9.20;99.90;;;;;;5032970;28;20212;-76
2023/11/11 06:21:40;;;;;;;7.07;2.35;;;9.10;99.90;;;;;;5015981;28;20571;-76
2023/11/11 06:24:06;;;;;;;4.33;2.87;;;9.10;99.90;;;;;;5016380;28;20173;-76
2023/11/11 06:26:32;;;;;;;6.80;3.13;;;9.00;99.90;;;;;;5050608;28;20714;-76
2023/11/11 06:28:57;;;;;;;3.57;2.23;;;9.00;99.90;;;;;;5032679;28;20594;-77
2023/11/11 06:31:23;;;;;;;3.70;3.07;;;8.90;99.90;;;;;;5032451;28;20215;-77
2023/11/11 06:34:00;;;;;;;4.50;3.30;;;8.90;99.90;;;;;;5032578;28;20204;-77
2023/11/11 06:36:31;;;;;;;3.97;3.17;;;8.80;99.90;;;;;;5033240;28;20173;-77
2023/11/11 06:39:09;;;;;;;5.03;2.97;;;8.80;99.90;;;;;;5032782;28;20204;-78
2023/11/11 06:41:47;;;;;;;4.32;3.92;;;8.80;99.90;;;;;;5050131;28;20165;-76
2023/11/11 06:44:27;;;;;;;4.43;3.53;;;8.70;99.90;;;;;;5017059;28;20204;-76
2023/11/11 06:47:08;;;;;;;4.65;3.30;;;8.70;99.90;;;;;;5036231;28;20180;-77
2023/11/11 06:49:41;;;;;;;3.55;3.15;;;8.70;99.90;;;;;;5014224;28;20178;-76
2023/11/11 06:52:17;;;;;;;4.95;3.15;;;8.70;99.90;;;;;;5028513;28;20203;-76
2023/11/11 06:54:43;;;;;;;5.00;3.80;;;8.80;99.90;;;;;;5032185;28;20203;-77
2023/11/11 06:57:09;;;;;;;8.05;3.35;;;8.80;99.90;;;;;;5049832;28;20173;-76
2023/11/11 06:59:37;;;;;;;5.18;3.50;;;8.80;99.90;;;;;;5048458;28;20234;-76
2023/11/11 07:02:14;;;;;;;5.88;3.55;;;8.80;99.90;;;;;;5013819;28;20180;-76
2023/11/11 07:04:53;;;;;;;4.18;3.35;;;8.80;99.90;;;;;;5045991;28;20207;-76
2023/11/11 07:07:21;;;;;;;5.15;3.17;;;8.90;99.90;;;;;;5032328;28;20183;-76
2023/11/11 07:09:50;;;;;;;4.38;3.35;;;8.90;99.90;;;;;;5046617;28;20169;-76
2023/11/11 07:12:18;;;;;;;5.45;3.80;;;9.00;99.90;;;;;;5048989;28;20208;-76
2023/11/11 07:14:45;;;;;;;5.90;3.35;;;9.00;99.90;;;;;;5013567;28;20316;-76
2023/11/11 07:17:11;;;;;;;7.18;4.22;;;9.00;99.90;;;;;;5032381;28;20169;-77
2023/11/11 07:19:38;;;;;;;7.70;4.32;;;9.10;99.90;;;;;;5025641;28;20634;-77
2023/11/11 07:22:04;;;;;;;6.88;4.72;;;9.10;99.90;;;;;;5065295;28;20322;-77
2023/11/11 07:24:29;;;;;;;4.90;4.13;;;9.10;99.90;;;;;;5035963;28;20189;-77
2023/11/11 07:26:55;;;;;;;9.87;4.20;;;9.10;99.90;;;;;;5049973;28;20613;-77
2023/11/11 07:29:30;;;;;;;7.55;4.90;;;9.20;99.90;;;;;;5050302;28;20242;-77
2023/11/11 07:31:56;;;;;;;6.87;3.50;;;9.20;99.90;;;;;;5049699;28;20627;-78
2023/11/11 07:34:25;;;;;;;10.07;3.78;;;9.20;99.90;;;;;;5050044;28;20193;-76
2023/11/11 07:36:51;;;;;;;5.68;4.05;;;9.20;99.90;;;;;;5029778;28;20173;-76
2023/11/11 07:39:19;;;;;;;6.28;4.10;;;9.30;99.90;;;;;;5031936;28;20563;-76
2023/11/11 07:41:49;;;;;;;7.80;5.28;;;9.20;99.90;;;;;;5049684;28;20567;-76
2023/11/11 07:44:17;;;;;;;7.43;5.05;;;9.20;99.90;;;;;;5016983;28;20189;-77
2023/11/11 07:46:50;;;;;;;10.15;5.25;;;9.20;99.90;;;;;;5053512;28;20176;-77
2023/11/11 07:49:16;;;;;;;8.40;5.07;;;9.10;99.90;;;;;;5035289;28;20306;-77
2023/11/11 07:51:42;;;;;;;7.70;4.17;;;9.10;99.90;;;;;;5046876;28;20555;-77
2023/11/11 07:54:08;;;;;;;7.07;5.03;;;9.10;99.90;;;;;;5035741;28;20184;-77
2023/11/11 07:56:34;;;;;;;7.50;5.50;;;9.10;99.90;;;;;;5035773;28;20240;-77
2023/11/11 07:59:02;;;;;;;11.48;5.60;;;9.10;99.90;;;;;;5053367;28;20582;-77
2023/11/11 08:01:29;;;;;;;9.65;6.03;;;9.10;99.90;;;;;;5039542;28;20212;-77
2023/11/11 08:03:55;;;;;;;8.95;5.05;;;9.10;99.90;;;;;;5053230;28;20181;-77
2023/11/11 08:06:25;;;;;;;10.60;5.68;;;9.10;99.90;;;;;;5053144;28;20188;-77
2023/11/11 08:08:52;;;;;;;6.97;4.75;;;9.20;99.90;;;;;;5035173;28;20173;-76
2023/11/11 08:11:18;;;;;;;9.10;5.38;;;9.20;99.90;;;;;;5053008;28;20180;-76
2023/11/11 08:13:44;;;;;;;10.80;7.37;;;9.30;99.90;;;;;;5018002;28;20242;-77
2023/11/11 08:16:11;;;;;;;10.60;5.40;;;9.40;99.90;;;;;;5053375;28;20201;-76
2023/11/11 08:18:37;;;;;;;8.73;5.95;;;9.40;99.90;;;;;;5037439;28;20626;-77
2023/11/11 08:21:04;;;;;;;12.25;5.97;;;9.50;99.90;;;;;;5018609;28;20200;-76
2023/11/11 08:23:32;;;;;;;10.68;6.40;;;9.60;99.90;;;;;;5053581;28;20169;-76
2023/11/11 08:25:58;;;;;;;9.07;5.47;;;9.60;99.90;;;;;;5053879;28;20501;-76
2023/11/11 08:28:24;;;;;;;8.10;5.77;;;9.70;99.90;;;;;;5037181;28;20180;-76
2023/11/11 08:30:49;;;;;;;9.30;5.67;;;9.70;99.90;;;;;;5038256;28;20686;-76
2023/11/11 08:33:18;;;;;;;7.93;5.17;;;9.80;99.90;;;;;;5054022;28;20172;-76
2023/11/11 08:35:45;;;;;;;8.07;5.35;;;9.80;99.90;;;;;;5053382;28;20189;-76
2023/11/11 08:38:11;;;;;;;9.80;6.25;;;10.00;99.90;;;;;;5042309;28;20227;-77
2023/11/11 08:40:36;;;;;;;9.25;5.32;;;10.00;99.90;;;;;;5043290;28;20236;-77
2023/11/11 08:43:04;;;;;;;7.87;4.30;;;10.10;99.90;;;;;;5017915;28;20176;-77
2023/11/11 08:45:30;;;;;;;5.95;4.10;;;10.20;99.90;;;;;;5036990;28;20262;-78
2023/11/11 08:47:55;;;;;;;8.55;5.30;;;10.20;99.90;;;;;;5070493;28;20203;-77
2023/11/11 08:50:22;;;;;;;7.70;4.00;;;10.30;99.90;;;;;;5049949;28;20202;-77
2023/11/11 08:52:49;;;;;;;7.93;5.13;;;10.40;99.90;;;;;;5051585;28;20177;-77
2023/11/11 08:55:14;;;;;;;7.10;4.45;;;10.50;99.90;;;;;;5054890;28;20207;-77
2023/11/11 08:57:40;;;;;;;8.57;4.87;;;10.50;99.90;;;;;;5064814;28;20203;-76
2023/11/11 09:00:12;;;;;;;8.87;4.90;;;10.60;99.90;;;;;;5051820;28;20177;-77
2023/11/11 09:02:39;;;;;;;5.68;4.95;;;10.60;99.90;;;;;;5036488;28;20575;-77
2023/11/11 09:05:06;;;;;;;9.45;4.55;;;10.70;99.90;;;;;;5027866;28;20195;-76
2023/11/11 09:07:34;;;;;;;7.57;4.18;;;10.70;99.90;;;;;;5044923;28;20169;-77
2023/11/11 09:10:00;;;;;;;6.03;3.80;;;10.80;99.90;;;;;;5043594;28;20172;-76
2023/11/11 09:12:29;;;;;;;7.88;4.20;;;10.90;99.90;;;;;;5043232;28;20202;-76
2023/11/11 09:14:55;;;;;;;9.20;4.80;;;11.00;99.90;;;;;;5065999;23;20215;-76
2023/11/11 09:17:24;;;;;;;6.07;4.63;;;11.00;99.90;;;;;;5061399;28;20220;-76
2023/11/11 09:19:51;;;;;;;7.15;4.43;;;11.10;99.90;;;;;;5080136;28;20602;-77
2023/11/11 09:22:16;;;;;;;7.07;4.63;;;11.10;99.90;;;;;;5063202;28;20184;-77
2023/11/11 09:24:43;;;;;;;5.57;4.30;;;11.20;99.90;;;;;;5086286;28;20254;-77
2023/11/11 09:27:12;;;;;;;7.65;5.45;;;11.30;99.90;;;;;;5058297;28;20590;-77
2023/11/11 09:29:58;;;;;;;6.03;3.92;;;11.30;99.90;;;;;;5050926;28;20184;-76
2023/11/11 09:32:26;;;;;;;7.30;4.55;;;11.40;99.90;;;;;;5071964;28;20207;-76
2023/11/11 09:34:52;;;;;;;6.30;4.00;;;11.50;99.90;;;;;;5037361;28;20570;-76
2023/11/11 09:37:18;;;;;;;8.70;4.13;;;11.50;99.90;;;;;;5071800;28;20180;-77
2023/11/11 09:39:44;;;;;;;8.13;4.75;;;11.60;99.90;;;;;;5054807;28;20211;-77
2023/11/11 09:42:09;;;;;;;5.33;4.13;;;11.60;99.90;;;;;;5058302;28;20224;-77
2023/11/11 09:44:39;;;;;;;8.52;4.13;;;11.70;99.90;;;;;;5085733;28;20267;-77
2023/11/11 09:47:09;;;;;;;6.13;3.33;;;11.70;99.90;;;;;;5068039;28;20191;-77
2023/11/11 09:49:36;;;;;;;7.47;4.13;;;11.80;99.90;;;;;;5083181;28;20240;-77
2023/11/11 09:52:04;;;;;;;4.60;3.20;;;11.90;99.90;;;;;;5059929;28;20185;-78
2023/11/11 09:54:32;;;;;;;6.60;4.00;;;11.90;99.90;;;;;;5073719;28;20641;-77
2023/11/11 09:56:58;;;;;;;7.40;3.47;;;12.00;99.90;;;;;;5053354;28;20632;-76
2023/11/11 09:59:25;;;;;;;7.47;3.95;;;12.10;99.90;;;;;;5071487;28;20210;-77
2023/11/11 10:01:52;;;;;;;5.53;3.80;;;12.20;99.90;;;;;;5070745;28;20183;-77
2023/11/11 10:04:21;;;;;;;7.57;4.70;;;12.20;99.90;;;;;;5069019;28;20641;-75
2023/11/11 10:06:52;;;;;;;7.37;4.90;;;12.30;99.90;;;;;;5069651;28;20589;-79
2023/11/11 10:09:19;;;;;;;5.10;2.72;;;12.40;99.90;;;;;;5070585;28;20589;-79
2023/11/11 10:11:46;;;;;;;7.80;3.57;;;12.50;99.90;;;;;;5053094;28;20226;-77
2023/11/11 10:14:15;;;;;;;7.23;3.67;;;12.60;99.90;;;;;;5053258;28;20621;-77
2023/11/11 10:16:43;;;;;;;7.37;3.00;;;12.70;99.90;;;;;;5071565;28;20573;-78
2023/11/11 10:19:14;;;;;;;7.22;3.38;;;12.60;99.90;;;;;;5071263;28;20614;-77
2023/11/11 10:21:40;;;;;;;5.47;2.83;;;12.60;99.90;;;;;;5057309;28;20259;-76
2023/11/11 10:24:08;;;;;;;5.20;3.10;;;12.60;99.90;;;;;;5071645;28;20587;-77
2023/11/11 10:26:34;;;;;;;6.37;3.10;;;12.70;99.90;;;;;;5053592;28;20586;-77
2023/11/11 10:29:07;;;;;;;5.53;2.80;;;12.70;99.90;;;;;;5075125;28;20594;-77
2023/11/11 10:31:36;;;;;;;9.27;2.80;;;12.70;99.90;;;;;;5053395;28;20590;-77
2023/11/11 10:34:02;;;;;;;7.87;3.40;;;12.80;99.90;;;;;;5071003;28;20593;-77
2023/11/11 10:36:37;;;;;;;3.83;2.27;;;12.80;99.90;;;;;;5036736;28;20594;-77
2023/11/11 10:39:04;;;;;;;7.80;2.70;;;12.90;99.90;;;;;;5053378;28;20638;-77
2023/11/11 10:41:32;;;;;;;4.67;2.53;;;13.00;99.90;;;;;;5052877;28;20583;-78
2023/11/11 10:43:57;;;;;;;5.70;2.60;;;13.10;99.90;;;;;;5052487;28;20942;-77
2023/11/11 10:46:29;;;;;;;5.20;2.10;;;13.20;99.90;;;;;;5051786;28;20696;-77
2023/11/11 10:48:55;;;;;;;4.53;2.33;;;13.30;99.90;;;;;;5052497;28;20646;-76
2023/11/11 10:51:23;;;;;;;8.17;3.03;;;13.40;99.90;;;;;;5052823;28;20578;-76
2023/11/11 10:53:50;;;;;;;5.00;1.93;;;13.40;99.90;;;;;;5052171;28;20583;-76
2023/11/11 10:56:18;;;;;;;6.77;2.47;;;13.50;99.90;;;;;;5052915;28;20593;-77
2023/11/11 10:58:45;;;;;;;4.27;2.30;;;13.60;99.90;;;;;;5052759;28;20622;-77
2023/11/11 11:01:11;;;;;;;6.60;2.07;;;13.60;99.90;;;;;;5071075;28;20563;-77
2023/11/11 11:03:37;;;;;;;4.43;2.00;;;13.60;99.90;;;;;;5052880;28;20593;-77
2023/11/11 11:06:33;;;;;;;5.27;2.30;;;13.60;99.90;;;;;;5055090;28;20607;-77
2023/11/11 11:09:16;;;;;;;4.47;1.97;;;13.50;99.90;;;;;;5072062;28;20571;-77
2023/11/11 11:11:54;;;;;;;7.53;1.80;;;13.40;99.90;;;;;;5049380;28;20578;-77
2023/11/11 11:14:31;;;;;;;3.77;1.90;;;13.40;99.90;;;;;;5052888;28;20614;-76
2023/11/11 11:17:01;;;;;;;3.87;1.80;;;13.30;99.90;;;;;;5070828;28;20578;-76
2023/11/11 11:19:27;;;;;;;3.47;1.80;;;13.30;99.90;;;;;;5038056;28;20725;-76
2023/11/11 11:21:52;;;;;;;3.00;1.60;;;13.30;99.90;;;;;;5074772;28;20657;-76
2023/11/11 11:24:18;;;;;;;4.20;1.57;;;13.30;99.90;;;;;;5074547;28;20224;-77
2023/11/11 11:26:48;;;;;;;3.50;1.33;;;13.40;99.90;;;;;;5040206;28;20570;-77
2023/11/11 11:29:16;;;;;;;4.93;1.50;;;13.50;99.90;;;;;;5056356;28;20617;-77
2023/11/11 11:32:06;;;;;;;4.97;1.60;;;13.60;99.90;;;;;;5073146;28;21186;-77
2023/11/11 11:34:33;;;;;;;3.23;1.93;;;13.60;99.90;;;;;;5074254;28;20595;-77
2023/11/11 11:36:59;;;;;;;3.20;1.20;;;13.70;99.90;;;;;;5074242;28;20563;-76
2023/11/11 11:39:29;;;;;;;7.50;1.40;;;13.70;99.90;;;;;;5074359;28;21426;-79
2023/11/11 11:42:17;;;;;;;5.77;1.50;;;13.70;99.90;;;;;;5076263;28;20218;-76
2023/11/11 11:44:53;;;;;;;5.07;1.73;;;13.70;99.90;;;;;;5077557;28;20618;-77
2023/11/11 11:47:20;;;;;;;5.40;1.30;;;13.80;99.90;;;;;;5090432;28;20932;-77
2023/11/11 11:49:49;;;;;;;7.33;1.80;;;13.80;99.90;;;;;;5015705;28;20580;-77
2023/11/11 11:52:21;;;;;;;4.90;1.30;;;13.80;99.90;;;;;;5073853;28;20593;-78
2023/11/11 11:54:47;;;;;;;5.17;1.83;;;13.80;99.90;;;;;;5072676;28;20650;-77
2023/11/11 11:57:13;;;;;;;4.03;2.30;;;13.70;99.90;;;;;;5073861;28;20991;-77
2023/11/11 12:00:00;;;;;;;6.30;1.80;;;13.70;99.90;;;;;;5039171;28;20200;-77
2023/11/11 12:02:26;;;;;;;3.80;1.40;;;13.70;99.90;;;;;;5055895;28;20570;-77
2023/11/11 12:04:52;;;;;;;3.13;1.43;;;13.70;99.90;;;;;;5039284;28;20617;-77
2023/11/11 12:07:21;;;;;;;2.90;1.30;;;13.70;99.90;;;;;;5055927;28;20168;-77
2023/11/11 12:09:56;;;;;;;4.10;1.40;;;13.70;99.90;;;;;;5055780;28;20579;-77
2023/11/11 12:12:28;;;;;;;5.63;2.03;;;13.60;99.90;;;;;;5055862;28;20595;-77
2023/11/11 12:14:54;;;;;;;4.60;2.60;;;13.70;99.90;;;;;;5055584;28;20647;-75
2023/11/11 12:17:23;;;;;;;4.87;1.33;;;13.70;99.90;;;;;;5055767;28;20669;-76
2023/11/11 12:19:49;;;;;;;3.23;1.77;;;13.60;99.90;;;;;;5058510;28;20196;-76
2023/11/11 12:22:15;;;;;;;4.13;1.40;;;13.60;99.90;;;;;;5055615;28;20570;-75
2023/11/11 12:24:42;;;;;;;3.60;1.00;;;13.60;99.90;;;;;;5055204;28;20602;-76
2023/11/11 12:27:08;;;;;;;6.03;2.27;;;13.70;99.90;;;;;;5055441;28;20185;-78
2023/11/11 12:29:43;;;;;;;5.87;2.50;;;13.70;99.90;;;;;;5054763;28;20593;-77
2023/11/11 12:32:15;;;;;;;5.37;1.63;;;13.70;99.90;;;;;;5055569;28;20636;-79
2023/11/11 12:34:50;;;;;;;3.23;1.73;;;13.80;99.90;;;;;;5055399;28;20621;-77
2023/11/11 12:37:20;;;;;;;3.70;1.53;;;13.80;99.90;;;;;;5055435;28;20622;-77
2023/11/11 12:39:50;;;;;;;4.80;1.97;;;13.80;99.90;;;;;;5055168;28;20615;-76
2023/11/11 12:42:22;;;;;;;5.70;1.27;;;13.90;99.90;;;;;;5072003;28;20656;-76
2023/11/11 12:44:49;;;;;;;4.87;1.73;;;13.90;99.90;;;;;;5054814;28;20607;-78
2023/11/11 12:47:15;;;;;;;4.03;1.97;;;14.00;99.90;;;;;;5038356;28;20571;-77
2023/11/11 12:49:54;;;;;;;3.80;1.47;;;14.10;99.90;;;;;;5038497;28;20574;-78
2023/11/11 12:52:21;;;;;;;4.50;1.30;;;14.20;99.90;;;;;;5054983;28;20578;-78
2023/11/11 12:54:50;;;;;;;3.50;1.20;;;14.30;99.90;;;;;;5054746;28;20606;-77
2023/11/11 12:57:27;;;;;;;1.63;0.90;;;14.30;99.90;;;;;;5058686;28;20613;-80
2023/11/11 12:59:56;;;;;;;5.30;1.30;;;14.40;99.90;;;;;;5055398;28;20630;-83
2023/11/11 13:02:22;;;;;;;4.03;1.23;;;14.40;99.90;;;;;;5060095;28;20663;-81